Time;durP1;ratioP1;P1;durP2;ratioP2;P2;SDS_P1;SDS_P2;PMS_P1;PMS_P2;Temp;Humidity;BMP_temperature;BMP_pressure;BME280_temperature;BME280_humidity;BME280_pressure;Samples;Min_cycle;Max_cycle;Signal;HPM_P1;HPM_P2
2023/06/27 00:00:12;;;;;;;;;1.67;1.33;;;;;21.90;38.67;101823.91;5018549;28;45195;-70
2023/06/27 00:02:38;;;;;;;;;2.00;1.00;;;;;21.88;39.17;101820.56;5018718;28;45331;-71
2023/06/27 00:05:04;;;;;;;;;3.00;2.00;;;;;21.84;39.00;101824.69;5000876;28;45478;-70
2023/06/27 00:07:29;;;;;;;;;1.33;1.00;;;;;21.83;39.11;101823.00;5000284;28;47713;-70
2023/06/27 00:09:55;;;;;;;;;1.00;1.00;;;;;21.85;39.23;101823.66;5018418;28;45302;-71
2023/06/27 00:12:21;;;;;;;;;4.33;2.67;;;;;21.84;39.21;101819.28;5018261;28;45300;-72
2023/06/27 00:14:47;;;;;;;;;1.67;1.00;;;;;21.80;39.60;101826.91;5018583;28;45283;-70
2023/06/27 00:17:13;;;;;;;;;1.00;1.00;;;;;21.77;39.65;101818.34;5018233;28;45690;-70
2023/06/27 00:19:39;;;;;;;;;2.00;2.00;;;;;21.66;39.42;101810.75;5018109;28;45499;-70
2023/06/27 00:22:09;;;;;;;;;1.00;1.00;;;;;21.65;39.57;101818.03;5018116;28;45243;-71
2023/06/27 00:24:38;;;;;;;;;2.33;1.67;;;;;21.68;39.91;101824.91;5017971;28;45521;-69
2023/06/27 00:27:04;;;;;;;;;1.33;1.33;;;;;21.59;39.89;101815.22;5017658;28;45807;-69
2023/06/27 00:29:29;;;;;;;;;3.00;2.00;;;;;21.27;40.05;101763.25;5017934;28;45672;-68
2023/06/27 00:31:55;;;;;;;;;2.67;1.33;;;;;21.60;40.01;101835.84;5018316;28;45261;-69
2023/06/27 00:34:21;;;;;;;;;1.33;0.33;;;;;21.49;40.43;101818.25;5018386;28;45403;-69
2023/06/27 00:36:46;;;;;;;;;1.00;1.00;;;;;21.49;40.00;101821.78;5017881;28;45637;-68
2023/06/27 00:39:12;;;;;;;;;2.33;1.33;;;;;21.42;40.17;101826.25;5018237;28;45387;-69
2023/06/27 00:41:37;;;;;;;;;5.67;1.00;;;;;21.41;40.39;101823.75;5000118;28;45329;-71
2023/06/27 00:44:09;;;;;;;;;3.67;2.67;;;;;21.30;40.42;101805.31;5000698;28;45592;-69
2023/06/27 00:46:37;;;;;;;;;3.00;3.00;;;;;21.12;40.24;101784.88;4999945;28;48528;-70
2023/06/27 00:49:03;;;;;;;;;2.00;1.00;;;;;21.32;40.58;101827.59;5017567;28;45356;-70
2023/06/27 00:51:29;;;;;;;;;1.33;1.33;;;;;21.23;40.72;101824.97;5017642;28;45303;-70
2023/06/27 00:53:56;;;;;;;;;2.67;1.00;;;;;21.17;40.74;101835.69;5017734;28;45382;-71
2023/06/27 00:56:21;;;;;;;;;1.67;0.00;;;;;21.03;40.92;101820.31;4999517;28;47535;-69
2023/06/27 00:58:47;;;;;;;;;3.00;2.00;;;;;21.12;41.13;101827.28;5017325;28;45246;-69
2023/06/27 01:01:16;;;;;;;;;2.33;1.00;;;;;21.09;40.75;101824.97;5017689;28;45431;-69
2023/06/27 01:03:42;;;;;;;;;2.00;2.00;;;;;21.17;41.25;101838.38;5017766;28;45455;-69
2023/06/27 01:06:33;;;;;;;;;2.00;1.00;;;;;21.12;40.96;101835.41;4999620;28;47127;-70
2023/06/27 01:09:08;;;;;;;;;1.00;1.00;;;;;21.07;40.75;101827.03;5012657;28;45290;-69
2023/06/27 01:11:58;;;;;;;;;1.67;1.67;;;;;21.00;41.12;101817.97;5017591;28;45215;-69
2023/06/27 01:14:25;;;;;;;;;1.00;1.00;;;;;21.08;41.21;101839.50;5017801;28;45500;-70
2023/06/27 01:16:51;;;;;;;;;1.00;1.00;;;;;20.99;40.39;101830.63;5017061;28;46790;-71
2023/06/27 01:19:21;;;;;;;;;1.67;1.67;;;;;20.91;40.33;101817.22;4999306;28;45448;-69
2023/06/27 01:21:52;;;;;;;;;2.00;2.00;;;;;20.94;40.06;101823.09;4999598;28;45380;-70
2023/06/27 01:24:18;;;;;;;;;1.67;1.67;;;;;20.93;40.15;101824.13;5017273;28;45561;-70
2023/06/27 01:26:43;;;;;;;;;0.00;0.00;;;;;21.00;39.64;101831.47;5017292;28;45657;-69
2023/06/27 01:29:11;;;;;;;;;1.00;1.00;;;;;20.93;39.31;101805.19;5016955;28;51891;-71
2023/06/27 01:32:04;;;;;;;;;0.33;0.33;;;;;20.94;39.36;101822.25;5017323;28;45485;-69
2023/06/27 01:34:36;;;;;;;;;1.00;1.00;;;;;20.89;39.52;101820.13;5016107;28;45452;-69
2023/06/27 01:37:29;;;;;;;;;2.67;1.00;;;;;20.89;39.59;101824.69;5020601;28;46516;-70
2023/06/27 01:40:02;;;;;;;;;1.33;1.33;;;;;20.94;39.66;101827.66;5020319;28;45329;-70
2023/06/27 01:42:34;;;;;;;;;1.00;1.00;;;;;20.87;39.56;101808.66;5020643;28;45439;-70
2023/06/27 01:45:02;;;;;;;;;1.33;1.00;;;;;20.92;39.83;101802.69;5020852;28;45353;-70
2023/06/27 01:47:28;;;;;;;;;1.00;1.00;;;;;20.96;39.56;101812.94;5020179;28;46796;-70
2023/06/27 01:49:54;;;;;;;;;1.00;1.00;;;;;20.97;39.98;101811.06;5002454;28;45415;-69
2023/06/27 01:52:20;;;;;;;;;1.00;1.00;;;;;21.00;39.90;101809.84;5020259;28;45339;-69
2023/06/27 01:54:46;;;;;;;;;3.00;1.67;;;;;20.89;39.73;101809.31;5020568;28;45440;-69
2023/06/27 01:57:12;;;;;;;;;0.67;0.00;;;;;20.61;40.13;101781.22;5020310;28;45456;-69
2023/06/27 01:59:37;;;;;;;;;1.00;1.00;;;;;20.82;39.93;101813.78;5002346;28;45449;-70
2023/06/27 02:02:03;;;;;;;;;2.00;1.00;;;;;20.89;40.04;101820.13;5020479;28;45488;-70
2023/06/27 02:04:28;;;;;;;;;1.33;1.00;;;;;20.93;39.81;101818.72;5020495;28;45211;-71
2023/06/27 02:06:54;;;;;;;;;0.33;0.33;;;;;20.92;39.72;101814.34;5002298;28;48467;-68
2023/06/27 02:09:19;;;;;;;;;0.33;0.33;;;;;20.79;39.99;101797.06;5020228;28;45281;-69
2023/06/27 02:11:45;;;;;;;;;1.00;0.00;;;;;20.87;39.88;101819.47;5020207;28;45174;-69
2023/06/27 02:14:11;;;;;;;;;1.00;1.00;;;;;20.81;40.18;101809.38;5020820;28;45441;-69
2023/06/27 02:16:37;;;;;;;;;1.33;1.33;;;;;20.86;39.98;101819.66;5002012;28;47398;-71
2023/06/27 02:19:02;;;;;;;;;1.00;1.00;;;;;20.81;40.54;101812.06;5019968;28;45459;-71
2023/06/27 02:21:28;;;;;;;;;2.00;2.00;;;;;20.84;40.41;101809.03;5019733;28;52646;-72
2023/06/27 02:23:53;;;;;;;;;1.00;1.00;;;;;20.82;40.94;101818.31;5002277;28;45565;-70
2023/06/27 02:26:18;;;;;;;;;1.00;1.00;;;;;20.81;40.98;101817.47;5001529;28;59582;-70
2023/06/27 02:28:44;;;;;;;;;1.00;1.00;;;;;20.82;41.10;101819.19;5019771;28;45318;-71
2023/06/27 02:31:09;;;;;;;;;0.67;0.33;;;;;20.77;41.35;101816.19;5002416;28;45373;-70
2023/06/27 02:33:34;;;;;;;;;1.33;1.33;;;;;20.81;41.33;101831.00;5020121;28;45609;-70
2023/06/27 02:36:00;;;;;;;;;1.33;1.33;;;;;20.80;41.92;101829.31;5019793;28;46074;-69
2023/06/27 02:38:25;;;;;;;;;2.00;1.00;;;;;20.80;42.07;101823.06;5018095;28;46584;-70
2023/06/27 02:40:51;;;;;;;;;1.00;1.00;;;;;20.79;42.23;101824.94;5019847;28;45504;-69
2023/06/27 02:43:16;;;;;;;;;3.00;2.00;;;;;20.77;42.27;101831.56;5019965;28;45470;-69
2023/06/27 02:45:42;;;;;;;;;3.00;2.00;;;;;20.75;42.46;101828.19;5018317;28;45734;-71
2023/06/27 02:48:07;;;;;;;;;2.67;1.33;;;;;20.70;42.86;101828.75;5019531;28;45220;-71
2023/06/27 02:50:32;;;;;;;;;1.00;1.00;;;;;20.70;43.06;101830.63;5001632;28;45456;-69
2023/06/27 02:52:58;;;;;;;;;1.00;1.00;;;;;20.72;42.67;101832.13;5019391;28;45177;-70
2023/06/27 02:55:23;;;;;;;;;2.00;0.33;;;;;20.62;43.08;101826.13;5019315;28;46243;-69
2023/06/27 02:57:48;;;;;;;;;1.00;1.00;;;;;20.66;42.86;101832.84;5019421;28;45496;-69
2023/06/27 03:00:14;;;;;;;;;3.33;2.00;;;;;20.39;43.04;101785.63;5019728;28;45292;-70
2023/06/27 03:02:40;;;;;;;;;2.00;1.00;;;;;20.56;42.96;101818.75;5019892;28;45257;-70
2023/06/27 03:05:05;;;;;;;;;1.67;1.00;;;;;20.67;43.15;101826.44;5019146;28;45575;-71
2023/06/27 03:07:31;;;;;;;;;1.00;1.00;;;;;20.68;43.09;101829.97;5019150;28;45601;-69
2023/06/27 03:09:56;;;;;;;;;2.67;2.67;;;;;20.68;42.87;101832.66;5019282;28;45495;-68
2023/06/27 03:12:21;;;;;;;;;1.33;1.33;;;;;20.63;43.41;101825.97;5001660;28;45595;-72
2023/06/27 03:14:47;;;;;;;;;13.00;9.33;;;;;20.61;43.53;101821.75;5019204;28;45371;-69
2023/06/27 03:17:12;;;;;;;;;4.33;3.00;;;;;20.58;43.37;101822.94;5017760;28;45485;-71
2023/06/27 03:19:37;;;;;;;;;0.33;0.00;;;;;20.52;43.35;101821.00;5001396;28;45413;-69
2023/06/27 03:22:03;;;;;;;;;1.00;1.00;;;;;20.49;44.11;101825.94;5019322;28;45318;-68
2023/06/27 03:24:28;;;;;;;;;1.00;1.00;;;;;20.47;43.82;101812.59;5018637;28;46014;-68
2023/06/27 03:26:54;;;;;;;;;2.00;1.00;;;;;20.39;44.15;101811.78;5019238;28;45637;-68
2023/06/27 03:29:19;;;;;;;;;1.33;1.33;;;;;20.50;44.02;101835.72;5019250;28;45247;-69
2023/06/27 03:31:44;;;;;;;;;2.33;1.33;;;;;20.49;44.12;101834.03;5019072;28;45315;-68
2023/06/27 03:34:10;;;;;;;;;1.33;1.00;;;;;20.46;43.77;101815.50;5018806;28;45956;-69
2023/06/27 03:36:35;;;;;;;;;2.67;0.33;;;;;20.43;43.99;101821.25;5018667;28;45278;-70
2023/06/27 03:39:00;;;;;;;;;3.00;1.00;;;;;20.41;44.45;101809.78;5018438;28;45846;-69
2023/06/27 03:41:26;;;;;;;;;6.00;3.00;;;;;20.47;44.08;101814.47;5018999;28;45305;-69
2023/06/27 03:43:52;;;;;;;;;4.00;1.00;;;;;20.43;43.98;101822.09;5018454;28;46527;-70
2023/06/27 03:46:17;;;;;;;;;1.00;1.00;;;;;20.44;44.12;101822.94;5018343;28;45299;-68
2023/06/27 03:48:43;;;;;;;;;1.00;1.00;;;;;20.35;44.32;101800.50;5000744;28;45530;-72
2023/06/27 03:51:08;;;;;;;;;2.33;1.00;;;;;20.44;44.23;101812.13;5018914;28;45354;-70
2023/06/27 03:53:33;;;;;;;;;3.00;1.67;;;;;20.36;44.24;101802.19;5018183;28;46089;-69
2023/06/27 03:56:02;;;;;;;;;3.67;1.33;;;;;20.09;44.45;101760.41;5016333;28;45931;-69
2023/06/27 03:58:28;;;;;;;;;2.33;2.00;;;;;20.39;44.31;101814.50;5018423;28;45380;-70
2023/06/27 04:00:53;;;;;;;;;1.00;1.00;;;;;20.35;44.47;101808.63;5017168;28;45502;-70
2023/06/27 04:03:19;;;;;;;;;2.00;2.00;;;;;20.44;44.43;101814.84;5018261;28;46137;-69
2023/06/27 04:05:45;;;;;;;;;1.33;1.33;;;;;20.46;44.69;101810.09;5018048;28;45360;-69
2023/06/27 04:08:10;;;;;;;;;2.67;2.67;;;;;20.45;44.60;101805.72;5000418;28;45460;-69
2023/06/27 04:10:35;;;;;;;;;2.00;2.00;;;;;20.51;44.49;101810.38;5018167;28;45640;-70
2023/06/27 04:13:01;;;;;;;;;3.00;1.00;;;;;20.41;44.48;101797.09;5018000;28;45928;-71
2023/06/27 04:15:26;;;;;;;;;6.00;3.00;;;;;20.46;44.79;101818.19;5018240;28;45278;-70
2023/06/27 04:17:51;;;;;;;;;2.67;1.67;;;;;20.46;44.69;101807.38;5018113;28;45522;-69
2023/06/27 04:20:17;;;;;;;;;2.67;2.67;;;;;20.49;44.85;101802.44;5018382;28;45529;-71
2023/06/27 04:22:42;;;;;;;;;2.00;2.00;;;;;20.52;44.78;101812.88;5017549;28;45487;-68
2023/06/27 04:25:10;;;;;;;;;1.00;1.00;;;;;20.51;44.78;101815.78;5018054;28;45436;-71
2023/06/27 04:27:36;;;;;;;;;1.67;1.00;;;;;20.55;45.12;101825.19;5017871;28;45256;-70
2023/06/27 04:30:03;;;;;;;;;2.33;1.33;;;;;20.58;45.08;101822.94;5017958;28;45419;-71
2023/06/27 04:32:29;;;;;;;;;2.67;1.67;;;;;20.60;44.89;101826.31;5017435;28;47585;-71
2023/06/27 04:34:57;;;;;;;;;3.00;1.33;;;;;20.65;45.21;101823.06;5017651;28;45369;-68
2023/06/27 04:37:23;;;;;;;;;5.00;4.00;;;;;20.67;45.18;101818.31;5017629;28;45199;-69
2023/06/27 04:39:48;;;;;;;;;2.00;2.00;;;;;20.71;45.14;101821.50;5018072;28;45495;-70
2023/06/27 04:42:14;;;;;;;;;2.00;2.00;;;;;20.64;44.72;101816.00;4999382;28;46688;-72
2023/06/27 04:44:39;;;;;;;;;2.67;2.67;;;;;20.69;45.33;101818.97;5017671;28;45313;-70
2023/06/27 04:47:05;;;;;;;;;2.00;2.00;;;;;20.72;45.06;101807.78;4999753;28;45285;-69
2023/06/27 04:49:30;;;;;;;;;2.00;2.00;;;;;20.77;45.21;101810.78;5018014;28;45213;-70
2023/06/27 04:51:56;;;;;;;;;3.00;3.00;;;;;20.88;45.06;101815.72;4999841;28;47464;-70
2023/06/27 04:54:21;;;;;;;;;2.00;2.00;;;;;20.80;45.10;101783.38;4999274;28;45272;-69
2023/06/27 04:56:47;;;;;;;;;2.00;2.00;;;;;20.96;45.12;101804.81;5017578;28;45424;-69
2023/06/27 04:59:12;;;;;;;;;1.00;1.00;;;;;21.03;44.99;101813.03;5017942;28;45334;-70
2023/06/27 05:01:38;;;;;;;;;1.00;1.00;;;;;21.06;45.29;101803.72;5017258;28;45564;-70
2023/06/27 05:04:06;;;;;;;;;2.33;2.33;;;;;21.12;45.35;101802.97;5017212;28;45264;-70
2023/06/27 05:06:33;;;;;;;;;4.67;2.00;;;;;21.19;45.12;101802.00;5017191;28;45264;-70
2023/06/27 05:08:58;;;;;;;;;3.00;2.00;;;;;21.16;45.16;101799.69;5016207;28;45556;-70
2023/06/27 05:11:24;;;;;;;;;2.33;2.00;;;;;21.23;45.58;101808.75;4999042;28;47065;-70
2023/06/27 05:13:49;;;;;;;;;4.67;4.67;;;;;21.15;45.43;101797.16;5015824;28;47297;-69
2023/06/27 05:16:14;;;;;;;;;3.00;3.00;;;;;21.24;45.57;101798.78;4999405;28;45482;-70
2023/06/27 05:18:41;;;;;;;;;1.67;1.33;;;;;21.31;45.63;101804.28;5017418;28;45544;-69
2023/06/27 05:21:07;;;;;;;;;4.33;3.33;;;;;21.40;45.73;101806.66;5016885;28;45822;-70
2023/06/27 05:23:32;;;;;;;;;5.00;5.00;;;;;21.48;45.91;101819.28;5016700;28;45494;-70
2023/06/27 05:25:58;;;;;;;;;4.00;3.00;;;;;21.53;45.78;101820.38;5016942;28;45310;-70
2023/06/27 05:28:23;;;;;;;;;2.00;2.00;;;;;21.48;45.83;101814.69;5012839;28;45565;-70
2023/06/27 05:30:49;;;;;;;;;3.00;2.00;;;;;21.59;45.59;101826.03;5023647;28;46543;-69
2023/06/27 05:33:14;;;;;;;;;2.67;2.67;;;;;21.70;45.24;101821.00;5023781;28;45361;-70
2023/06/27 05:35:40;;;;;;;;;3.33;3.33;;;;;21.56;45.40;101801.03;5008606;28;45521;-73
2023/06/27 05:38:06;;;;;;;;;4.00;2.33;;;;;21.70;45.86;101830.97;5007450;28;45445;-69
2023/06/27 05:40:32;;;;;;;;;5.00;3.00;;;;;21.72;45.45;101823.50;5015010;28;46555;-70
2023/06/27 05:42:57;;;;;;;;;6.00;4.00;;;;;21.42;45.82;101774.00;5016235;28;45306;-69
2023/06/27 05:45:22;;;;;;;;;2.33;2.33;;;;;21.82;45.84;101818.59;5016801;28;45889;-70
2023/06/27 05:47:48;;;;;;;;;4.67;2.00;;;;;21.86;45.70;101811.78;4999862;28;45429;-70
2023/06/27 05:50:13;;;;;;;;;4.33;2.67;;;;;21.96;46.12;101817.72;4996789;28;46539;-70
2023/06/27 05:52:38;;;;;;;;;6.00;5.67;;;;;22.11;45.83;101817.69;4978785;28;45287;-70
2023/06/27 05:55:04;;;;;;;;;4.33;2.67;;;;;22.35;45.20;101800.19;5013045;28;45331;-70
2023/06/27 05:57:29;;;;;;;;;6.00;3.00;;;;;22.64;44.70;101800.03;5015409;28;45415;-69
2023/06/27 05:59:55;;;;;;;;;3.00;2.00;;;;;22.85;44.47;101811.88;5008233;28;45941;-70
2023/06/27 06:02:20;;;;;;;;;1.67;1.67;;;;;23.01;44.36;101811.53;4996555;28;45260;-68
2023/06/27 06:04:46;;;;;;;;;5.00;4.00;;;;;23.24;44.14;101812.09;4996428;28;45484;-69
2023/06/27 06:07:11;;;;;;;;;8.00;4.00;;;;;23.50;43.69;101810.50;4997447;28;46008;-70
2023/06/27 06:09:36;;;;;;;;;3.67;3.00;;;;;23.06;42.94;101684.28;4978079;28;46375;-69
2023/06/27 06:12:02;;;;;;;;;3.33;3.33;;;;;24.00;42.40;101811.91;4996328;28;45560;-71
2023/06/27 06:14:28;;;;;;;;;4.67;4.00;;;;;24.22;42.05;101804.41;4996475;28;45468;-69
2023/06/27 06:16:53;;;;;;;;;4.33;3.33;;;;;24.51;41.77;101814.91;4996930;28;45469;-70
2023/06/27 06:19:19;;;;;;;;;3.00;1.33;;;;;24.66;41.31;101805.72;4979949;28;45641;-69
2023/06/27 06:21:44;;;;;;;;;2.00;2.00;;;;;24.79;40.77;101805.66;4999889;28;45357;-69
2023/06/27 06:24:10;;;;;;;;;5.00;3.00;;;;;24.63;40.60;101757.16;4983380;28;45663;-69
2023/06/27 06:26:36;;;;;;;;;4.33;2.33;;;;;24.99;40.72;101790.16;5002071;28;45622;-70
2023/06/27 06:29:02;;;;;;;;;3.33;2.00;;;;;25.22;40.10;101813.31;5013633;28;45793;-70
2023/06/27 06:31:27;;;;;;;;;3.33;3.33;;;;;25.29;40.28;101806.00;5017907;28;45421;-70
2023/06/27 06:33:53;;;;;;;;;4.67;3.33;;;;;25.32;40.05;101800.09;4993248;28;45425;-69
2023/06/27 06:36:19;;;;;;;;;3.00;3.00;;;;;25.29;40.17;101806.81;5008179;28;45532;-69
2023/06/27 06:38:44;;;;;;;;;2.67;2.00;;;;;25.31;39.58;101817.50;5010619;28;45625;-71
2023/06/27 06:41:10;;;;;;;;;4.33;3.00;;;;;25.28;39.70;101818.75;5001084;28;45731;-71
2023/06/27 06:43:35;;;;;;;;;4.00;4.00;;;;;25.24;39.89;101808.53;5001447;28;45245;-70
2023/06/27 06:46:01;;;;;;;;;4.67;1.67;;;;;25.27;39.55;101813.53;4993335;28;45414;-71
2023/06/27 06:48:26;;;;;;;;;3.67;2.67;;;;;25.20;39.71;101808.09;4998589;28;46291;-70
2023/06/27 06:50:53;;;;;;;;;2.67;2.33;;;;;25.25;39.71;101816.47;5002816;28;45427;-72
2023/06/27 06:53:19;;;;;;;;;2.67;2.67;;;;;25.02;39.46;101773.41;5007084;28;45539;-71
2023/06/27 06:55:44;;;;;;;;;4.00;4.00;;;;;25.29;40.06;101811.44;5013962;28;45344;-69
2023/06/27 06:58:10;;;;;;;;;9.00;6.33;;;;;25.34;39.92;101806.16;5014592;28;45247;-70
2023/06/27 07:00:36;;;;;;;;;6.33;4.67;;;;;25.24;40.00;101781.31;5009345;28;45435;-69
2023/06/27 07:03:03;;;;;;;;;3.00;3.00;;;;;25.51;39.77;101815.53;4984451;28;45367;-70
2023/06/27 07:05:28;;;;;;;;;3.00;3.00;;;;;25.53;39.79;101805.25;5037563;28;45452;-71
2023/06/27 07:07:54;;;;;;;;;3.00;3.00;;;;;25.37;39.30;101759.44;5024789;28;46966;-71
2023/06/27 07:10:19;;;;;;;;;4.00;3.00;;;;;25.76;39.12;101816.47;5017501;28;45117;-69
2023/06/27 07:12:44;;;;;;;;;3.67;3.00;;;;;25.82;38.72;101817.47;5016943;28;45743;-70
2023/06/27 07:15:10;;;;;;;;;7.00;5.67;;;;;25.90;38.93;101813.66;5015411;28;45583;-69
2023/06/27 07:17:35;;;;;;;;;2.00;2.00;;;;;25.58;38.23;101763.72;4982687;28;48850;-69
2023/06/27 07:20:01;;;;;;;;;5.00;4.00;;;;;25.95;38.33;101816.56;5017506;28;45484;-70
2023/06/27 07:22:26;;;;;;;;;3.33;3.33;;;;;25.98;38.61;101816.94;5007490;28;45295;-69
2023/06/27 07:24:52;;;;;;;;;4.33;4.33;;;;;25.98;38.52;101810.66;4998522;28;45326;-70
2023/06/27 07:27:17;;;;;;;;;3.00;3.00;;;;;26.03;38.55;101813.59;5027450;28;46373;-72
2023/06/27 07:29:44;;;;;;;;;2.67;2.67;;;;;26.12;38.75;101825.88;5024963;28;45488;-70
2023/06/27 07:32:10;;;;;;;;;5.67;3.33;;;;;26.14;37.92;101821.03;5006154;28;45597;-71
2023/06/27 07:34:36;;;;;;;;;4.33;3.67;;;;;26.18;38.28;101821.41;5018041;28;45469;-73
2023/06/27 07:37:02;;;;;;;;;3.33;3.33;;;;;26.07;38.02;101799.28;5015006;28;45669;-69
2023/06/27 07:39:28;;;;;;;;;7.67;6.33;;;;;26.27;38.05;101820.09;5017563;28;45385;-69
2023/06/27 07:41:53;;;;;;;;;2.33;2.33;;;;;26.31;37.60;101821.31;5017557;28;45391;-73
2023/06/27 07:44:19;;;;;;;;;8.33;4.67;;;;;25.99;37.87;101760.56;5017950;28;45155;-70
2023/06/27 07:46:44;;;;;;;;;9.00;6.67;;;;;26.18;37.83;101789.53;5017479;28;45996;-68
2023/06/27 07:49:10;;;;;;;;;3.00;3.00;;;;;26.41;37.46;101827.13;5016095;28;45445;-70
2023/06/27 07:51:35;;;;;;;;;3.00;3.00;;;;;26.43;37.74;101825.03;4999218;28;45471;-71
2023/06/27 07:54:02;;;;;;;;;4.25;2.25;;;;;26.53;37.68;101827.25;5009345;28;45577;-70
2023/06/27 07:56:28;;;;;;;;;3.00;3.00;;;;;26.60;37.40;101833.47;5022281;28;45694;-69
2023/06/27 07:58:53;;;;;;;;;3.67;3.67;;;;;26.54;36.93;101805.22;5007432;28;45588;-77
2023/06/27 08:01:18;;;;;;;;;7.00;3.67;;;;;26.73;36.60;101829.81;4998156;28;45493;-75
2023/06/27 08:03:44;;;;;;;;;4.00;2.67;;;;;26.77;37.35;101837.31;5000215;28;45551;-71
2023/06/27 08:06:09;;;;;;;;;4.00;3.00;;;;;26.74;36.58;101821.38;5001910;28;45767;-69
2023/06/27 08:08:36;;;;;;;;;4.33;3.33;;;;;26.84;36.92;101832.63;5016937;28;45486;-71
2023/06/27 08:11:02;;;;;;;;;2.00;2.00;;;;;26.89;36.47;101826.50;4999534;28;45522;-70
2023/06/27 08:13:27;;;;;;;;;3.33;3.33;;;;;26.95;36.37;101837.34;5007196;28;45421;-70
2023/06/27 08:15:53;;;;;;;;;2.33;2.33;;;;;26.88;36.12;101806.56;5005586;28;46773;-72
2023/06/27 08:18:18;;;;;;;;;5.00;4.00;;;;;26.94;36.24;101800.19;5016991;28;45421;-70
2023/06/27 08:20:43;;;;;;;;;4.67;2.00;;;;;27.05;35.67;101806.84;5015724;28;45362;-70
2023/06/27 08:23:09;;;;;;;;;5.00;5.00;;;;;27.08;35.50;101792.72;5015918;28;45306;-72
2023/06/27 08:25:34;;;;;;;;;3.00;2.00;;;;;27.32;34.92;101814.69;4994057;28;47436;-70
2023/06/27 08:27:59;;;;;;;;;1.67;1.67;;;;;26.94;34.27;101756.53;5015428;28;45422;-71
2023/06/27 08:30:27;;;;;;;;;6.33;4.33;;;;;27.17;34.57;101785.88;5017161;28;45393;-70
2023/06/27 08:32:54;;;;;;;;;2.00;1.67;;;;;27.25;35.12;101804.69;5004900;28;45460;-70
2023/06/27 08:35:20;;;;;;;;;3.67;2.00;;;;;27.20;34.63;101787.31;5017003;28;46520;-71
2023/06/27 08:37:46;;;;;;;;;2.00;2.00;;;;;27.23;34.50;101809.56;5013679;28;45454;-72
2023/06/27 08:40:18;;;;;;;;;5.33;4.33;;;;;27.22;35.14;101801.56;5003382;28;45413;-69
2023/06/27 08:42:44;;;;;;;;;3.00;3.00;;;;;27.25;35.27;101799.25;5008388;28;45495;-71
2023/06/27 08:45:10;;;;;;;;;3.00;3.00;;;;;27.28;34.67;101800.66;5011379;28;46877;-70
2023/06/27 08:47:39;;;;;;;;;3.00;2.67;;;;;27.30;34.46;101804.00;5009631;28;45455;-69
2023/06/27 08:50:07;;;;;;;;;3.00;2.00;;;;;27.32;34.49;101806.50;5017151;28;45291;-70
2023/06/27 08:52:38;;;;;;;;;2.00;2.00;;;;;27.39;33.78;101802.59;4999804;28;45461;-71
2023/06/27 08:55:06;;;;;;;;;3.00;3.00;;;;;27.41;33.45;101788.72;4996954;28;45719;-71
2023/06/27 08:57:35;;;;;;;;;2.00;2.00;;;;;27.49;33.49;101781.06;5021574;28;45392;-72
2023/06/27 09:00:12;;;;;;;;;1.67;1.67;;;;;27.24;32.67;101739.41;5000553;28;45420;-73
2023/06/27 09:02:39;;;;;;;;;3.00;2.00;;;;;27.63;32.53;101795.38;5015480;28;45598;-70
2023/06/27 09:05:06;;;;;;;;;4.00;2.67;;;;;27.68;32.13;101783.78;5016673;28;46317;-70
2023/06/27 09:07:33;;;;;;;;;8.33;8.33;;;;;27.59;32.21;101766.84;5016354;28;45450;-70
2023/06/27 09:09:59;;;;;;;;;4.67;3.00;;;;;27.59;31.91;101769.56;4993928;28;45510;-72
2023/06/27 09:12:26;;;;;;;;;2.00;2.00;;;;;27.63;30.71;101759.88;5007807;28;45502;-70
2023/06/27 09:14:51;;;;;;;;;2.33;2.33;;;;;27.42;31.60;101719.38;5007734;28;46611;-69
2023/06/27 09:17:16;;;;;;;;;2.00;2.00;;;;;27.77;31.78;101765.97;5005763;28;45501;-72
2023/06/27 09:19:42;;;;;;;;;3.00;2.00;;;;;27.80;31.19;101765.50;5002367;28;45394;-70
2023/06/27 09:22:08;;;;;;;;;2.00;2.00;;;;;27.67;30.52;101771.19;5002441;28;45561;-73
2023/06/27 09:24:40;;;;;;;;;1.00;1.00;;;;;27.53;31.58;101760.41;4999234;28;45868;-70
2023/06/27 09:27:05;;;;;;;;;2.00;2.00;;;;;27.49;31.12;101748.28;5003458;28;45456;-70
2023/06/27 09:29:34;;;;;;;;;3.00;2.00;;;;;27.38;31.73;101718.19;5012624;28;46399;-71
2023/06/27 09:32:09;;;;;;;;;1.00;1.00;;;;;27.57;30.83;101761.59;5003522;28;45339;-70
2023/06/27 09:34:35;;;;;;;;;3.00;2.00;;;;;27.31;31.11;101756.53;5014612;28;46375;-68
2023/06/27 09:37:02;;;;;;;;;1.00;1.00;;;;;26.85;31.72;101711.50;5002662;28;45493;-69
2023/06/27 09:39:28;;;;;;;;;0.33;0.33;;;;;26.86;31.86;101713.19;5016189;28;45235;-71
2023/06/27 09:41:53;;;;;;;;;2.00;2.00;;;;;27.13;30.85;101738.25;5016248;28;45422;-71
2023/06/27 09:44:21;;;;;;;;;0.33;0.33;;;;;27.17;31.18;101749.56;5015665;28;51638;-71
2023/06/27 09:46:48;;;;;;;;;1.67;1.67;;;;;26.98;30.68;101703.13;5000267;28;45347;-70
2023/06/27 09:49:14;;;;;;;;;4.67;3.00;;;;;27.17;30.01;101736.72;5016359;28;45388;-70
2023/06/27 09:51:40;;;;;;;;;7.67;7.00;;;;;27.20;30.03;101733.53;5012465;28;46151;-72
2023/06/27 09:54:06;;;;;;;;;2.00;2.00;;;;;27.26;30.01;101731.81;4996046;28;46744;-71
2023/06/27 09:56:32;;;;;;;;;3.33;3.00;;;;;27.25;30.91;101725.50;5015656;28;45485;-70
2023/06/27 09:59:11;;;;;;;;;4.33;4.33;;;;;27.22;30.82;101725.13;5023077;28;45391;-72
2023/06/27 10:01:40;;;;;;;;;3.33;2.00;;;;;27.16;31.17;101717.84;5033305;28;45334;-70
2023/06/27 10:04:06;;;;;;;;;5.00;3.00;;;;;27.02;31.54;101694.53;5037938;28;45512;-72
2023/06/27 10:06:33;;;;;;;;;4.00;4.00;;;;;27.20;31.56;101713.59;5016482;28;45402;-71
2023/06/27 10:08:59;;;;;;;;;2.33;1.33;;;;;27.30;30.37;101719.34;5008986;28;45422;-72
2023/06/27 10:11:26;;;;;;;;;1.00;1.00;;;;;27.17;30.93;101700.41;4997463;28;45513;-70
2023/06/27 10:13:52;;;;;;;;;3.00;3.00;;;;;27.22;30.81;101714.19;5018509;28;45488;-71
2023/06/27 10:16:18;;;;;;;;;2.00;1.00;;;;;27.23;30.64;101708.53;5011207;28;46370;-71
2023/06/27 10:18:44;;;;;;;;;2.00;2.00;;;;;27.28;30.44;101707.84;5013725;28;45542;-71
2023/06/27 10:21:15;;;;;;;;;5.00;5.00;;;;;27.23;30.35;101688.56;5006942;28;45663;-71
2023/06/27 10:23:44;;;;;;;;;2.00;2.00;;;;;27.39;29.68;101714.38;5016143;28;46400;-70
2023/06/27 10:26:10;;;;;;;;;4.00;4.00;;;;;27.34;29.94;101712.34;5019168;28;45286;-70
2023/06/27 10:28:35;;;;;;;;;3.00;2.00;;;;;27.33;29.38;101718.06;5015473;28;45658;-73
2023/06/27 10:31:04;;;;;;;;;4.00;1.67;;;;;27.42;29.60;101719.38;5018076;28;45532;-72
2023/06/27 10:33:31;;;;;;;;;3.67;2.00;;;;;27.38;29.31;101710.81;5003267;28;47111;-71
2023/06/27 10:35:58;;;;;;;;;3.00;3.00;;;;;27.40;28.96;101722.34;5003659;28;45467;-74
2023/06/27 10:38:34;;;;;;;;;3.67;3.67;;;;;27.37;29.89;101711.88;5017082;28;45577;-71
2023/06/27 10:41:06;;;;;;;;;2.00;2.00;;;;;27.22;29.17;101712.28;5000842;28;45403;-71
2023/06/27 10:43:52;;;;;;;;;2.67;2.67;;;;;27.12;30.45;101714.75;5000667;28;47640;-73
2023/06/27 10:46:27;;;;;;;;;2.67;2.67;;;;;27.12;29.62;101714.75;5000883;28;46080;-72
2023/06/27 10:48:59;;;;;;;;;2.67;2.00;;;;;26.86;29.71;101705.00;5018832;28;45485;-71
2023/06/27 10:51:45;;;;;;;;;4.00;4.00;;;;;26.72;30.29;101717.13;5018867;28;45413;-71
2023/06/27 10:54:16;;;;;;;;;3.33;2.00;;;;;26.62;30.81;101724.97;5037808;28;46012;-69
2023/06/27 10:56:53;;;;;;;;;4.00;3.00;;;;;26.61;31.00;101728.75;5038857;28;45331;-72
2023/06/27 10:59:20;;;;;;;;;7.00;7.00;;;;;26.58;30.71;101734.69;5038638;28;45306;-70
2023/06/27 11:01:53;;;;;;;;;5.00;5.00;;;;;26.60;30.58;101732.56;5038928;28;45435;-70
2023/06/27 11:04:26;;;;;;;;;5.33;4.00;;;;;26.66;30.76;101731.66;5038549;28;46778;-70
2023/06/27 11:06:59;;;;;;;;;5.00;2.00;;;;;26.55;30.61;101707.84;5037095;28;45460;-74
2023/06/27 11:09:25;;;;;;;;;3.67;3.00;;;;;26.70;30.05;101719.25;5018412;28;45524;-70
2023/06/27 11:11:55;;;;;;;;;3.00;2.00;;;;;26.43;30.73;101676.94;5018858;28;45330;-68
2023/06/27 11:14:41;;;;;;;;;5.33;5.33;;;;;26.74;31.33;101712.25;5018516;28;45713;-71
2023/06/27 11:17:07;;;;;;;;;4.33;4.33;;;;;26.81;31.19;101707.53;5018534;28;46430;-73
2023/06/27 11:19:34;;;;;;;;;2.33;2.33;;;;;26.90;30.05;101714.38;5000816;28;45296;-71
2023/06/27 11:22:01;;;;;;;;;4.00;2.33;;;;;26.60;29.50;101653.44;5019212;28;45258;-73